Time;durP1;ratioP1;P1;durP2;ratioP2;P2;SDS_P1;SDS_P2;PMS_P1;PMS_P2;Temp;Humidity;BMP_temperature;BMP_pressure;BME280_temperature;BME280_humidity;BME280_pressure;Samples;Min_cycle;Max_cycle;Signal;HPM_P1;HPM_P2
2022/07/22 00:01:45;;;;;;;;;;;16.40;99.90;;;;;;5048832;28;19905;-83
2022/07/22 00:04:10;;;;;;;;;;;16.40;99.90;;;;;;5046709;28;19905;-83
2022/07/22 00:06:37;;;;;;;;;;;16.40;99.90;;;;;;5055139;28;19974;-83
2022/07/22 00:09:03;;;;;;;;;;;16.30;99.90;;;;;;5037628;28;19912;-83
2022/07/22 00:11:28;;;;;;;;;;;16.40;99.90;;;;;;5032986;28;19990;-83
2022/07/22 00:13:54;;;;;;;;;;;16.40;99.90;;;;;;5034127;28;19928;-83
2022/07/22 00:16:19;;;;;;;;;;;16.40;99.90;;;;;;5043536;28;19913;-83
2022/07/22 00:18:45;;;;;;;;;;;16.30;99.90;;;;;;5033991;28;19912;-81
2022/07/22 00:21:10;;;;;;;;;;;16.30;99.90;;;;;;5051372;28;19972;-81
2022/07/22 00:23:36;;;;;;;;;;;16.30;99.90;;;;;;5047571;28;19913;-81
2022/07/22 00:26:02;;;;;;;;;;;16.30;99.90;;;;;;5053976;28;19912;-81
2022/07/22 00:28:27;;;;;;;;;;;16.30;99.90;;;;;;5036636;28;19909;-81
2022/07/22 00:30:53;;;;;;;;;;;16.30;99.90;;;;;;5036057;28;19995;-81
2022/07/22 00:33:18;;;;;;;;;;;16.20;99.90;;;;;;5049695;28;20015;-81
2022/07/22 00:35:44;;;;;;;;;;;16.30;99.90;;;;;;5030814;28;19927;-81
2022/07/22 00:38:09;;;;;;;;;;;16.20;99.90;;;;;;5049464;28;19909;-81
2022/07/22 00:40:35;;;;;;;;;;;16.30;99.90;;;;;;5055575;28;19919;-81
2022/07/22 00:43:01;;;;;;;;;;;16.20;99.90;;;;;;5053489;28;20323;-81
2022/07/22 00:45:27;;;;;;;;;;;16.20;99.90;;;;;;5042543;28;20343;-81
2022/07/22 00:47:52;;;;;;;;;;;16.20;99.90;;;;;;5028789;28;20285;-81
2022/07/22 00:50:19;;;;;;;;;;;16.20;99.90;;;;;;5053031;28;20353;-81
2022/07/22 00:52:45;;;;;;;;;;;16.20;99.90;;;;;;5054636;28;20372;-81
2022/07/22 00:55:10;;;;;;;;;;;16.20;99.90;;;;;;5055117;28;19959;-81
2022/07/22 00:57:36;;;;;;;;;;;16.20;99.90;;;;;;5049926;28;20027;-81
2022/07/22 01:00:02;;;;;;;;;;;16.20;99.90;;;;;;5050501;28;19911;-81
2022/07/22 01:02:28;;;;;;;;;;;16.20;99.90;;;;;;5029675;28;19996;-81
2022/07/22 01:04:53;;;;;;;;;;;16.10;99.90;;;;;;5044199;28;19944;-81
2022/07/22 01:07:19;;;;;;;;;;;16.10;99.90;;;;;;5031297;28;19909;-81
2022/07/22 01:09:45;;;;;;;;;;;16.10;99.90;;;;;;5051666;28;19982;-81
2022/07/22 01:12:10;;;;;;;;;;;16.10;99.90;;;;;;5042947;28;20373;-81
2022/07/22 01:14:36;;;;;;;;;;;16.10;99.90;;;;;;5050716;28;19971;-81
2022/07/22 01:17:02;;;;;;;;;;;16.00;99.90;;;;;;5044107;28;19966;-81
2022/07/22 01:19:28;;;;;;;;;;;16.10;99.90;;;;;;5053457;28;19927;-81
2022/07/22 01:21:53;;;;;;;;;;;16.00;99.90;;;;;;5050688;28;19908;-81
2022/07/22 01:24:19;;;;;;;;;;;16.00;99.90;;;;;;5053679;28;19905;-81
2022/07/22 01:26:45;;;;;;;;;;;16.00;99.90;;;;;;5044205;28;19911;-81
2022/07/22 01:29:10;;;;;;;;;;;15.90;99.90;;;;;;5039841;28;20414;-81
2022/07/22 01:31:36;;;;;;;;;;;15.90;99.90;;;;;;5041570;28;19912;-81
2022/07/22 01:34:01;;;;;;;;;;;15.90;99.90;;;;;;5043692;28;19932;-80
2022/07/22 01:36:27;;;;;;;;;;;15.90;99.90;;;;;;5053268;28;19904;-81
2022/07/22 01:38:52;;;;;;;;;;;15.90;99.90;;;;;;5049219;28;19909;-81
2022/07/22 01:41:18;;;;;;;;;;;15.90;99.90;;;;;;5049533;28;19916;-81
2022/07/22 01:43:43;;;;;;;;;;;15.90;99.90;;;;;;5043517;28;19905;-81
2022/07/22 01:46:09;;;;;;;;;;;15.80;99.90;;;;;;5045981;28;20050;-81
2022/07/22 01:48:35;;;;;;;;;;;15.90;99.90;;;;;;5054393;28;19980;-81
2022/07/22 01:51:00;;;;;;;;;;;15.90;99.90;;;;;;5042857;28;19913;-81
2022/07/22 01:53:26;;;;;;;;;;;15.80;99.90;;;;;;5051999;28;19909;-81
2022/07/22 01:55:52;;;;;;;;;;;15.80;99.90;;;;;;5049620;28;19905;-81
2022/07/22 01:58:17;;;;;;;;;;;15.80;99.90;;;;;;5054367;28;19958;-81
2022/07/22 02:00:43;;;;;;;;;;;15.80;99.90;;;;;;5039681;28;19919;-81
2022/07/22 02:03:10;;;;;;;;;;;15.80;99.90;;;;;;5040769;28;20417;-81
2022/07/22 02:05:36;;;;;;;;;;;15.80;99.90;;;;;;5047362;28;19936;-81
2022/07/22 02:08:05;;;;;;;;;;;15.80;99.90;;;;;;5042255;28;19916;-81
2022/07/22 02:10:31;;;;;;;;;;;15.90;99.90;;;;;;5053295;28;19995;-81
2022/07/22 02:12:57;;;;;;;;;;;15.80;99.90;;;;;;5049755;28;19924;-81
2022/07/22 02:15:23;;;;;;;;;;;15.90;99.90;;;;;;5054395;28;20016;-81
2022/07/22 02:17:48;;;;;;;;;;;15.90;99.90;;;;;;5053928;28;19948;-81
2022/07/22 02:20:14;;;;;;;;;;;15.80;99.90;;;;;;5053697;28;19905;-81
2022/07/22 02:22:40;;;;;;;;;;;15.80;99.90;;;;;;5053656;28;19916;-81
2022/07/22 02:25:05;;;;;;;;;;;15.80;99.90;;;;;;5044861;28;19935;-81
2022/07/22 02:27:31;;;;;;;;;;;15.80;99.90;;;;;;5054182;28;19904;-81
2022/07/22 02:29:56;;;;;;;;;;;15.70;99.90;;;;;;5052214;28;19939;-81
2022/07/22 02:32:22;;;;;;;;;;;15.70;99.90;;;;;;5051903;28;19909;-81
2022/07/22 02:34:47;;;;;;;;;;;15.80;99.90;;;;;;5048627;28;19973;-81
2022/07/22 02:37:13;;;;;;;;;;;15.80;99.90;;;;;;5034452;28;19984;-81
2022/07/22 02:39:38;;;;;;;;;;;15.80;99.90;;;;;;5044244;28;20392;-81
2022/07/22 02:42:04;;;;;;;;;;;15.90;99.90;;;;;;5050802;28;19935;-81
2022/07/22 02:44:29;;;;;;;;;;;15.90;99.90;;;;;;5042398;28;19920;-81
2022/07/22 02:46:55;;;;;;;;;;;15.90;99.90;;;;;;5049254;28;20438;-81
2022/07/22 02:49:20;;;;;;;;;;;15.90;99.90;;;;;;5029986;28;19947;-81
2022/07/22 02:51:46;;;;;;;;;;;15.90;99.90;;;;;;5051824;28;19955;-81
2022/07/22 02:54:11;;;;;;;;;;;15.90;99.90;;;;;;5045833;28;19919;-81
2022/07/22 02:56:37;;;;;;;;;;;15.80;99.90;;;;;;5031412;28;19912;-81
2022/07/22 02:59:02;;;;;;;;;;;15.80;99.90;;;;;;5040513;28;19919;-81
2022/07/22 03:01:28;;;;;;;;;;;15.80;99.90;;;;;;5041423;28;19956;-81
2022/07/22 03:03:54;;;;;;;;;;;15.80;99.90;;;;;;5052585;28;19916;-81
2022/07/22 03:06:21;;;;;;;;;;;15.80;99.90;;;;;;5053281;28;19976;-82
2022/07/22 03:08:46;;;;;;;;;;;15.80;99.90;;;;;;5039258;28;19917;-81
2022/07/22 03:11:12;;;;;;;;;;;15.80;99.90;;;;;;5053790;28;19916;-81
2022/07/22 03:13:37;;;;;;;;;;;15.80;99.90;;;;;;5039727;28;19919;-81
2022/07/22 03:16:03;;;;;;;;;;;15.80;99.90;;;;;;5038011;28;19955;-81
2022/07/22 03:18:29;;;;;;;;;;;15.70;99.90;;;;;;5041827;28;19905;-81
2022/07/22 03:20:54;;;;;;;;;;;15.70;99.90;;;;;;5037327;28;19904;-81
2022/07/22 03:23:20;;;;;;;;;;;15.80;99.90;;;;;;5046639;28;19920;-81
2022/07/22 03:25:45;;;;;;;;;;;15.70;99.90;;;;;;5055327;28;19919;-81
2022/07/22 03:28:11;;;;;;;;;;;15.70;99.90;;;;;;5050773;28;19926;-81
2022/07/22 03:30:37;;;;;;;;;;;15.70;99.90;;;;;;5056108;28;19904;-81
2022/07/22 03:33:02;;;;;;;;;;;15.70;99.90;;;;;;5056208;28;20387;-81
2022/07/22 03:35:28;;;;;;;;;;;15.60;99.90;;;;;;5054528;28;19912;-81
2022/07/22 03:37:53;;;;;;;;;;;15.70;99.90;;;;;;5055583;28;19905;-81
2022/07/22 03:40:19;;;;;;;;;;;15.70;99.90;;;;;;5057066;28;19977;-81
2022/07/22 03:42:44;;;;;;;;;;;15.80;99.90;;;;;;5053068;28;20360;-81
2022/07/22 03:45:10;;;;;;;;;;;15.70;99.90;;;;;;5055363;28;19909;-81
2022/07/22 03:47:36;;;;;;;;;;;15.70;99.90;;;;;;5046919;28;19919;-81
2022/07/22 03:50:01;;;;;;;;;;;15.80;99.90;;;;;;5038226;28;19995;-81
2022/07/22 03:52:28;;;;;;;;;;;15.70;99.90;;;;;;5037592;28;19951;-81
2022/07/22 03:54:54;;;;;;;;;;;15.70;99.90;;;;;;5048106;28;19908;-81
2022/07/22 03:57:20;;;;;;;;;;;15.70;99.90;;;;;;5042822;28;20652;-81
2022/07/22 03:59:45;;;;;;;;;;;15.70;99.90;;;;;;5056495;28;19904;-80
2022/07/22 04:02:11;;;;;;;;;;;15.70;99.90;;;;;;5049360;28;19931;-81
2022/07/22 04:04:36;;;;;;;;;;;15.70;99.90;;;;;;5027670;28;19973;-81
2022/07/22 04:07:02;;;;;;;;;;;15.70;99.90;;;;;;5054561;28;19911;-81
2022/07/22 04:09:27;;;;;;;;;;;15.70;99.90;;;;;;5056861;28;19912;-81
2022/07/22 04:11:53;;;;;;;;;;;15.70;99.90;;;;;;5052707;28;19909;-81
2022/07/22 04:14:19;;;;;;;;;;;15.70;99.90;;;;;;5062206;28;19913;-81
2022/07/22 04:16:44;;;;;;;;;;;15.70;99.90;;;;;;5042589;28;20344;-81
2022/07/22 04:19:10;;;;;;;;;;;15.70;99.90;;;;;;5062267;28;19966;-81
2022/07/22 04:21:35;;;;;;;;;;;15.80;99.90;;;;;;5043384;28;19973;-81
2022/07/22 04:24:01;;;;;;;;;;;15.80;99.90;;;;;;5060310;28;20011;-81
2022/07/22 04:26:26;;;;;;;;;;;15.80;99.90;;;;;;5057188;28;19955;-81
2022/07/22 04:28:52;;;;;;;;;;;15.80;99.90;;;;;;5056809;28;19947;-81
2022/07/22 04:31:18;;;;;;;;;;;15.80;99.90;;;;;;5072211;28;19912;-81
2022/07/22 04:33:43;;;;;;;;;;;15.80;99.90;;;;;;5044181;28;19912;-81
2022/07/22 04:36:09;;;;;;;;;;;15.80;99.90;;;;;;5063259;28;19909;-81
2022/07/22 04:38:34;;;;;;;;;;;15.90;99.90;;;;;;5045221;28;19915;-81
2022/07/22 04:41:00;;;;;;;;;;;15.90;99.90;;;;;;5056242;28;20015;-81
2022/07/22 04:43:25;;;;;;;;;;;15.90;99.90;;;;;;5058309;28;19904;-81
2022/07/22 04:45:51;;;;;;;;;;;15.80;99.90;;;;;;5060781;28;19912;-81
2022/07/22 04:48:17;;;;;;;;;;;15.80;99.90;;;;;;5061698;28;19912;-81
2022/07/22 04:50:43;;;;;;;;;;;15.90;99.90;;;;;;5043034;28;19905;-81
2022/07/22 04:53:08;;;;;;;;;;;15.80;99.90;;;;;;5070473;28;20376;-80
2022/07/22 04:55:34;;;;;;;;;;;15.80;99.90;;;;;;5039081;28;19939;-81
2022/07/22 04:57:59;;;;;;;;;;;15.80;99.90;;;;;;5042139;28;19991;-81
2022/07/22 05:00:25;;;;;;;;;;;15.80;99.90;;;;;;5064039;28;20329;-81
2022/07/22 05:02:51;;;;;;;;;;;15.80;99.90;;;;;;5056820;28;19908;-80
2022/07/22 05:05:16;;;;;;;;;;;15.90;99.90;;;;;;5055176;28;19943;-81
2022/07/22 05:07:42;;;;;;;;;;;15.90;99.90;;;;;;5057573;28;19908;-80
2022/07/22 05:10:08;;;;;;;;;;;15.80;99.90;;;;;;5036983;28;20023;-81
2022/07/22 05:12:33;;;;;;;;;;;15.90;99.90;;;;;;5028433;28;19950;-81
2022/07/22 05:14:59;;;;;;;;;;;15.80;99.90;;;;;;5033431;28;19912;-81
2022/07/22 05:17:24;;;;;;;;;;;15.90;99.90;;;;;;5048908;28;19904;-81
2022/07/22 05:19:50;;;;;;;;;;;16.00;99.90;;;;;;5035292;28;19951;-81
2022/07/22 05:22:15;;;;;;;;;;;16.00;99.90;;;;;;5042631;28;19959;-81
2022/07/22 05:24:41;;;;;;;;;;;16.00;99.90;;;;;;5042370;28;19919;-81
2022/07/22 05:27:06;;;;;;;;;;;16.00;99.90;;;;;;5046246;28;19923;-81
2022/07/22 05:29:32;;;;;;;;;;;16.10;99.90;;;;;;5049562;28;20315;-81
2022/07/22 05:31:57;;;;;;;;;;;16.20;99.90;;;;;;5050922;28;19931;-81
2022/07/22 05:34:23;;;;;;;;;;;16.20;99.90;;;;;;5057832;28;19915;-81
2022/07/22 05:36:48;;;;;;;;;;;16.30;99.90;;;;;;5044204;28;20031;-81
2022/07/22 05:39:14;;;;;;;;;;;16.40;99.90;;;;;;5031304;28;20323;-81
2022/07/22 05:41:40;;;;;;;;;;;16.40;99.90;;;;;;5033935;28;19935;-80
2022/07/22 05:44:05;;;;;;;;;;;16.40;99.90;;;;;;5039666;28;19905;-81
2022/07/22 05:46:31;;;;;;;;;;;16.50;99.90;;;;;;5043131;28;19913;-81
2022/07/22 05:48:56;;;;;;;;;;;16.30;99.90;;;;;;5061926;28;19904;-81
2022/07/22 05:51:22;;;;;;;;;;;16.30;99.90;;;;;;5033950;28;19920;-81
2022/07/22 05:53:48;;;;;;;;;;;16.30;99.90;;;;;;5032460;28;19916;-82
2022/07/22 05:56:13;;;;;;;;;;;16.40;99.90;;;;;;5052876;28;19905;-81
2022/07/22 05:58:40;;;;;;;;;;;16.30;99.90;;;;;;5035467;28;19927;-81
2022/07/22 06:01:05;;;;;;;;;;;16.30;99.90;;;;;;5036912;28;19913;-80
2022/07/22 06:03:31;;;;;;;;;;;16.30;99.90;;;;;;5034959;28;20329;-81
2022/07/22 06:05:57;;;;;;;;;;;16.20;99.90;;;;;;5050765;28;19905;-80
2022/07/22 06:08:22;;;;;;;;;;;16.20;99.90;;;;;;5051556;28;19916;-80
2022/07/22 06:10:48;;;;;;;;;;;16.20;99.90;;;;;;5034558;28;19920;-80
2022/07/22 06:13:13;;;;;;;;;;;16.20;99.90;;;;;;5033181;28;20390;-80
2022/07/22 06:15:39;;;;;;;;;;;16.30;99.90;;;;;;5034190;28;20334;-81
2022/07/22 06:18:05;;;;;;;;;;;16.40;99.90;;;;;;5052380;28;19905;-80
2022/07/22 06:20:30;;;;;;;;;;;16.20;99.90;;;;;;5051181;28;20480;-80
2022/07/22 06:22:56;;;;;;;;;;;16.10;99.90;;;;;;5049728;28;19938;-80
2022/07/22 06:25:21;;;;;;;;;;;16.00;99.90;;;;;;5034291;28;19976;-80
2022/07/22 06:27:47;;;;;;;;;;;16.00;99.90;;;;;;5048406;28;19923;-80
2022/07/22 06:30:12;;;;;;;;;;;16.00;99.90;;;;;;5033047;28;19917;-80
2022/07/22 06:32:38;;;;;;;;;;;15.90;99.90;;;;;;5037085;28;20012;-80
2022/07/22 06:35:04;;;;;;;;;;;15.90;99.90;;;;;;5034275;28;19916;-80
2022/07/22 06:37:29;;;;;;;;;;;15.80;99.90;;;;;;5030379;28;19909;-80
2022/07/22 06:39:55;;;;;;;;;;;15.80;99.90;;;;;;5049491;28;19944;-80
2022/07/22 06:42:22;;;;;;;;;;;15.90;99.90;;;;;;5047739;28;19917;-80
2022/07/22 06:44:48;;;;;;;;;;;15.80;99.90;;;;;;5033683;28;19905;-80
2022/07/22 06:47:13;;;;;;;;;;;15.90;99.90;;;;;;5049811;28;20502;-80
2022/07/22 06:49:39;;;;;;;;;;;15.90;99.90;;;;;;5033009;28;20269;-81
2022/07/22 06:52:04;;;;;;;;;;;15.90;99.90;;;;;;5034763;28;20705;-80
2022/07/22 06:54:30;;;;;;;;;;;15.90;99.90;;;;;;5040121;28;20012;-81
2022/07/22 06:56:57;;;;;;;;;;;15.90;99.90;;;;;;5047755;28;19916;-81
2022/07/22 06:59:23;;;;;;;;;;;16.00;99.90;;;;;;5054144;28;20015;-80
2022/07/22 07:01:49;;;;;;;;;;;16.10;99.90;;;;;;5033991;28;19932;-80
2022/07/22 07:04:14;;;;;;;;;;;16.00;99.90;;;;;;5038468;28;19960;-80
2022/07/22 07:06:40;;;;;;;;;;;16.10;99.90;;;;;;5054287;28;19916;-80
2022/07/22 07:09:06;;;;;;;;;;;16.10;99.90;;;;;;5056262;28;19924;-80
2022/07/22 07:11:31;;;;;;;;;;;16.10;99.90;;;;;;5058309;28;20299;-81
2022/07/22 07:13:57;;;;;;;;;;;16.20;99.90;;;;;;5054103;28;20772;-80
2022/07/22 07:16:22;;;;;;;;;;;16.40;99.90;;;;;;5025025;28;19912;-80
2022/07/22 07:18:48;;;;;;;;;;;16.50;99.90;;;;;;5061532;28;19924;-80
2022/07/22 07:21:13;;;;;;;;;;;16.30;99.90;;;;;;5043947;28;20002;-80
2022/07/22 07:23:39;;;;;;;;;;;16.30;99.90;;;;;;5048653;28;19919;-80
2022/07/22 07:26:04;;;;;;;;;;;16.20;99.90;;;;;;5044294;28;20263;-81
2022/07/22 07:28:30;;;;;;;;;;;16.30;99.90;;;;;;5040010;28;20455;-80
2022/07/22 07:30:56;;;;;;;;;;;16.40;99.90;;;;;;5037950;28;20284;-80
2022/07/22 07:33:21;;;;;;;;;;;16.30;99.90;;;;;;5062673;28;19944;-81
2022/07/22 07:35:47;;;;;;;;;;;16.40;99.90;;;;;;5057476;28;19913;-81
2022/07/22 07:38:13;;;;;;;;;;;16.70;99.90;;;;;;5038957;28;19913;-80
2022/07/22 07:40:38;;;;;;;;;;;16.90;99.90;;;;;;5038995;28;19913;-81
2022/07/22 07:43:04;;;;;;;;;;;16.90;99.90;;;;;;5055390;28;19958;-80
2022/07/22 07:45:30;;;;;;;;;;;16.90;99.90;;;;;;5045784;28;19913;-81
2022/07/22 07:47:55;;;;;;;;;;;16.90;99.90;;;;;;5040695;28;19904;-80
2022/07/22 07:50:21;;;;;;;;;;;17.10;99.90;;;;;;5060816;28;19932;-81
2022/07/22 07:52:49;;;;;;;;;;;17.30;99.90;;;;;;5044658;28;20400;-81
2022/07/22 07:55:15;;;;;;;;;;;17.50;99.90;;;;;;5044008;28;19924;-81
2022/07/22 07:57:41;;;;;;;;;;;17.50;99.90;;;;;;5046236;28;19912;-80
2022/07/22 08:00:08;;;;;;;;;;;17.80;99.90;;;;;;5042249;28;19913;-81
2022/07/22 08:02:33;;;;;;;;;;;17.90;99.90;;;;;;5039078;28;19909;-80
2022/07/22 08:04:59;;;;;;;;;;;17.90;99.90;;;;;;5046073;28;19931;-81
2022/07/22 08:07:25;;;;;;;;;;;17.80;99.90;;;;;;5056035;28;19963;-80
2022/07/22 08:09:50;;;;;;;;;;;17.60;99.90;;;;;;5043080;28;19924;-80
2022/07/22 08:12:16;;;;;;;;;;;17.60;99.90;;;;;;5054171;28;20004;-80
2022/07/22 08:14:41;;;;;;;;;;;17.70;99.90;;;;;;5061549;28;19920;-80
2022/07/22 08:17:07;;;;;;;;;;;18.00;99.90;;;;;;5060672;28;19999;-80
2022/07/22 08:19:33;;;;;;;;;;;18.20;99.90;;;;;;5047149;28;19924;-81
2022/07/22 08:21:58;;;;;;;;;;;18.20;99.90;;;;;;5041651;28;20241;-80
2022/07/22 08:24:24;;;;;;;;;;;18.40;99.90;;;;;;5039741;28;19915;-80
2022/07/22 08:26:49;;;;;;;;;;;18.60;99.90;;;;;;5057557;28;19915;-80
2022/07/22 08:29:15;;;;;;;;;;;18.80;99.90;;;;;;5045859;28;19923;-80
2022/07/22 08:31:40;;;;;;;;;;;18.80;99.90;;;;;;5054075;28;20455;-80
2022/07/22 08:34:06;;;;;;;;;;;18.90;99.90;;;;;;5041033;28;19948;-80
2022/07/22 08:36:31;;;;;;;;;;;18.60;99.90;;;;;;5056208;28;19905;-81
2022/07/22 08:38:57;;;;;;;;;;;18.70;99.90;;;;;;5054717;28;19916;-80
2022/07/22 08:41:23;;;;;;;;;;;19.00;99.90;;;;;;5038728;28;19920;-80
2022/07/22 08:43:49;;;;;;;;;;;19.10;99.90;;;;;;5056286;28;19904;-80
2022/07/22 08:46:15;;;;;;;;;;;18.80;99.90;;;;;;5056447;28;19916;-80
2022/07/22 08:48:41;;;;;;;;;;;18.60;99.90;;;;;;5047211;28;19908;-80
2022/07/22 08:51:06;;;;;;;;;;;18.50;99.90;;;;;;5038859;28;19966;-80
2022/07/22 08:53:32;;;;;;;;;;;18.60;99.90;;;;;;5036434;28;19920;-80
2022/07/22 08:55:58;;;;;;;;;;;18.60;99.90;;;;;;5054380;28;19955;-80
2022/07/22 08:58:25;;;;;;;;;;;18.40;99.90;;;;;;5059505;28;20423;-80
2022/07/22 09:01:05;;;;;;;;;;;18.60;99.90;;;;;;5041376;28;19905;-81
2022/07/22 09:03:31;;;;;;;;;;;18.90;99.90;;;;;;5047530;28;19920;-80
2022/07/22 09:05:57;;;;;;;;;;;19.00;99.90;;;;;;5050922;28;20376;-80
2022/07/22 09:08:22;;;;;;;;;;;18.90;99.90;;;;;;5044348;28;19924;-80
2022/07/22 09:10:48;;;;;;;;;;;18.90;99.90;;;;;;5044423;28;19999;-80
2022/07/22 09:13:14;;;;;;;;;;;19.20;99.90;;;;;;5031289;28;19908;-80
2022/07/22 09:15:45;;;;;;;;;;;19.30;99.90;;;;;;5039521;28;20341;-80
2022/07/22 09:18:11;;;;;;;;;;;19.50;99.90;;;;;;5051583;28;19909;-83
2022/07/22 09:20:37;;;;;;;;;;;19.60;99.90;;;;;;5033187;28;19919;-80
2022/07/22 09:23:13;;;;;;;;;;;19.50;99.90;;;;;;5050743;28;19908;-80
2022/07/22 09:25:40;;;;;;;;;;;19.50;99.90;;;;;;5048594;28;19923;-80
2022/07/22 09:28:05;;;;;;;;;;;19.30;99.90;;;;;;5040660;28;19908;-80
2022/07/22 09:30:31;;;;;;;;;;;19.50;99.90;;;;;;5035991;28;19920;-80
2022/07/22 09:32:56;;;;;;;;;;;19.40;99.90;;;;;;5039391;28;19909;-80
2022/07/22 09:35:22;;;;;;;;;;;19.40;99.90;;;;;;5050605;28;19916;-80
2022/07/22 09:37:52;;;;;;;;;;;19.50;99.90;;;;;;5040518;28;20102;-81
2022/07/22 09:40:19;;;;;;;;;;;19.90;99.90;;;;;;5032442;28;20551;-81
2022/07/22 09:42:50;;;;;;;;;;;20.00;99.90;;;;;;5049678;28;19924;-81
2022/07/22 09:45:16;;;;;;;;;;;19.80;99.90;;;;;;5049227;28;20008;-80
2022/07/22 09:47:43;;;;;;;;;;;19.90;99.90;;;;;;5050577;28;19928;-80
2022/07/22 09:50:15;;;;;;;;;;;20.20;99.90;;;;;;5036774;28;19920;-80
2022/07/22 09:52:42;;;;;;;;;;;20.30;99.90;;;;;;5055913;28;19916;-80
2022/07/22 09:55:08;;;;;;;;;;;20.30;99.90;;;;;;5050873;28;20285;-83
2022/07/22 09:57:33;;;;;;;;;;;20.20;99.90;;;;;;5049605;28;19913;-80
2022/07/22 09:59:59;;;;;;;;;;;20.00;99.90;;;;;;5052234;28;19908;-81
2022/07/22 10:02:26;;;;;;;;;;;20.20;99.90;;;;;;5049809;28;19962;-81
2022/07/22 10:04:53;;;;;;;;;;;20.10;99.90;;;;;;5036033;28;19913;-81
2022/07/22 10:07:19;;;;;;;;;;;20.00;99.90;;;;;;5055778;28;20284;-80
2022/07/22 10:09:45;;;;;;;;;;;20.10;99.90;;;;;;5056627;28;19913;-80
2022/07/22 10:12:11;;;;;;;;;;;20.30;99.90;;;;;;5030342;28;19920;-81
2022/07/22 10:14:37;;;;;;;;;;;20.40;99.90;;;;;;5036145;28;19936;-80
2022/07/22 10:17:03;;;;;;;;;;;20.40;99.90;;;;;;5037446;28;19929;-80
2022/07/22 10:19:29;;;;;;;;;;;20.40;99.90;;;;;;5050301;28;19913;-80
2022/07/22 10:21:54;;;;;;;;;;;20.20;99.90;;;;;;5043837;28;19909;-80
2022/07/22 10:24:23;;;;;;;;;;;20.10;99.90;;;;;;5049597;28;19908;-80
2022/07/22 10:27:01;;;;;;;;;;;20.20;99.90;;;;;;5034384;28;19909;-80
2022/07/22 10:29:43;;;;;;;;;;;20.20;99.90;;;;;;5035062;28;19905;-80
2022/07/22 10:32:17;;;;;;;;;;;20.30;99.90;;;;;;5027937;28;20297;-80
2022/07/22 10:34:44;;;;;;;;;;;20.50;99.90;;;;;;5046963;28;19960;-80
2022/07/22 10:37:28;;;;;;;;;;;20.80;99.90;;;;;;5048061;28;19943;-80
2022/07/22 10:40:09;;;;;;;;;;;21.10;99.90;;;;;;5026584;28;19978;-80
2022/07/22 10:42:55;;;;;;;;;;;20.90;99.90;;;;;;5045222;28;19920;-80
2022/07/22 10:45:36;;;;;;;;;;;20.70;99.90;;;;;;5028425;28;21172;-80
2022/07/22 10:48:05;;;;;;;;;;;20.60;99.90;;;;;;5044293;28;20304;-81
2022/07/22 10:50:43;;;;;;;;;;;20.70;99.90;;;;;;5028846;28;19958;-80
2022/07/22 10:53:08;;;;;;;;;;;20.40;99.90;;;;;;5029707;28;19939;-80
2022/07/22 10:55:34;;;;;;;;;;;20.20;99.90;;;;;;5031455;28;19916;-85
2022/07/22 10:58:00;;;;;;;;;;;20.40;99.90;;;;;;5045555;28;19909;-81
2022/07/22 11:00:26;;;;;;;;;;;20.60;99.90;;;;;;5051922;28;19944;-80
2022/07/22 11:02:51;;;;;;;;;;;20.50;99.90;;;;;;5028656;28;19921;-81
2022/07/22 11:05:27;;;;;;;;;;;20.40;99.90;;;;;;5046020;28;20115;-80
2022/07/22 11:07:52;;;;;;;;;;;20.50;99.90;;;;;;5010853;28;19945;-81
2022/07/22 11:10:19;;;;;;;;;;;20.50;99.90;;;;;;4995281;28;19932;-80
2022/07/22 11:12:45;;;;;;;;;;;20.60;99.90;;;;;;5009778;28;19996;-80
2022/07/22 11:15:11;;;;;;;;;;;20.80;99.90;;;;;;4985504;28;20176;-80
2022/07/22 11:17:37;;;;;;;;;;;20.70;99.90;;;;;;5009357;28;19906;-80
2022/07/22 11:20:10;;;;;;;;;;;20.80;99.90;;;;;;5008398;28;19963;-80
2022/07/22 11:22:37;;;;;;;;;;;20.90;99.90;;;;;;4975055;28;20289;-81
2022/07/22 11:25:04;;;;;;;;;;;21.20;99.90;;;;;;5006522;28;19917;-80
2022/07/22 11:27:30;;;;;;;;;;;21.70;99.90;;;;;;5008565;28;20056;-80
2022/07/22 11:29:57;;;;;;;;;;;21.60;99.90;;;;;;5009229;28;19910;-80
2022/07/22 11:32:24;;;;;;;;;;;21.40;99.90;;;;;;4992919;28;20049;-80
2022/07/22 11:34:50;;;;;;;;;;;21.50;99.90;;;;;;4992746;28;19967;-81
2022/07/22 11:37:17;;;;;;;;;;;21.50;99.90;;;;;;4991932;28;19910;-81
2022/07/22 11:39:43;;;;;;;;;;;21.10;99.90;;;;;;5007488;28;20562;-82
2022/07/22 11:42:08;;;;;;;;;;;20.90;99.90;;;;;;4991466;28;19914;-80
2022/07/22 11:44:35;;;;;;;;;;;20.60;99.90;;;;;;5002483;28;19905;-80
2022/07/22 11:47:01;;;;;;;;;;;20.90;99.90;;;;;;5053440;28;19962;-81
2022/07/22 11:49:28;;;;;;;;;;;21.10;99.90;;;;;;5053394;28;20516;-80
2022/07/22 11:51:53;;;;;;;;;;;21.20;99.90;;;;;;5035841;28;19916;-80
2022/07/22 11:54:19;;;;;;;;;;;21.00;99.90;;;;;;5036748;28;19932;-81
2022/07/22 11:56:44;;;;;;;;;;;21.20;99.90;;;;;;5053489;28;20506;-80
2022/07/22 11:59:14;;;;;;;;;;;21.60;99.90;;;;;;5042864;28;19935;-80
2022/07/22 12:01:40;;;;;;;;;;;21.90;99.90;;;;;;5046288;28;19905;-82
2022/07/22 12:04:07;;;;;;;;;;;22.60;99.90;;;;;;5041324;28;20023;-81
2022/07/22 12:06:37;;;;;;;;;;;22.70;99.90;;;;;;5050880;28;19988;-81
2022/07/22 12:09:05;;;;;;;;;;;22.60;99.90;;;;;;5054383;28;19912;-81
2022/07/22 12:11:30;;;;;;;;;;;22.50;99.90;;;;;;5034750;28;19917;-81
2022/07/22 12:14:04;;;;;;;;;;;22.40;99.90;;;;;;5039019;28;19942;-82
2022/07/22 12:16:30;;;;;;;;;;;22.30;99.90;;;;;;5038173;28;19919;-81
2022/07/22 12:18:56;;;;;;;;;;;22.20;99.90;;;;;;5037182;28;19992;-81
2022/07/22 12:21:22;;;;;;;;;;;22.30;99.90;;;;;;5052752;28;19909;-82
2022/07/22 12:23:52;;;;;;;;;;;22.20;99.90;;;;;;5055646;28;19909;-81
2022/07/22 12:26:18;;;;;;;;;;;22.60;99.90;;;;;;5036775;28;19992;-81
2022/07/22 12:28:43;;;;;;;;;;;22.60;99.90;;;;;;5035155;28;20321;-81
2022/07/22 12:31:09;;;;;;;;;;;22.50;99.90;;;;;;5036910;28;19956;-81
2022/07/22 12:33:34;;;;;;;;;;;22.40;99.90;;;;;;5040983;28;19916;-81
2022/07/22 12:36:04;;;;;;;;;;;22.70;99.90;;;;;;5041191;28;19909;-81
2022/07/22 12:38:30;;;;;;;;;;;22.90;99.90;;;;;;5050622;28;19913;-81
2022/07/22 12:40:56;;;;;;;;;;;22.60;99.90;;;;;;5041054;28;20463;-81
2022/07/22 12:43:25;;;;;;;;;;;22.40;99.90;;;;;;5036830;28;19916;-81
2022/07/22 12:45:51;;;;;;;;;;;22.40;99.90;;;;;;5041594;28;19924;-81
2022/07/22 12:48:17;;;;;;;;;;;22.70;99.90;;;;;;5033013;28;19909;-81
2022/07/22 12:50:53;;;;;;;;;;;22.60;99.90;;;;;;5037676;28;19905;-81
2022/07/22 12:53:19;;;;;;;;;;;22.70;99.90;;;;;;5034233;28;19938;-80
2022/07/22 12:55:44;;;;;;;;;;;22.90;99.90;;;;;;5038498;28;19920;-81
2022/07/22 12:58:11;;;;;;;;;;;23.30;99.90;;;;;;5038238;28;19926;-81
2022/07/22 13:00:47;;;;;;;;;;;23.80;99.90;;;;;;5044596;28;19908;-81
2022/07/22 13:03:12;;;;;;;;;;;23.40;99.90;;;;;;5050816;28;19917;-81
2022/07/22 13:05:39;;;;;;;;;;;24.10;99.90;;;;;;5034870;28;19905;-81
2022/07/22 13:08:04;;;;;;;;;;;23.90;99.90;;;;;;5034855;28;19989;-81
2022/07/22 13:10:30;;;;;;;;;;;24.60;99.90;;;;;;5047964;28;19925;-81
2022/07/22 13:12:56;;;;;;;;;;;24.30;99.90;;;;;;5045724;28;19909;-81
2022/07/22 13:15:21;;;;;;;;;;;24.50;99.90;;;;;;5038599;28;19920;-81
2022/07/22 13:17:48;;;;;;;;;;;24.20;99.90;;;;;;5040990;28;20778;-81
2022/07/22 13:20:16;;;;;;;;;;;24.30;99.90;;;;;;5041829;28;19905;-82
2022/07/22 13:22:42;;;;;;;;;;;24.50;99.90;;;;;;5037190;28;19916;-81
2022/07/22 13:25:08;;;;;;;;;;;24.30;99.90;;;;;;5032184;28;19960;-81
2022/07/22 13:27:34;;;;;;;;;;;23.70;99.90;;;;;;5033097;28;19920;-81
2022/07/22 13:29:59;;;;;;;;;;;23.70;99.90;;;;;;5038261;28;19912;-81
2022/07/22 13:32:25;;;;;;;;;;;23.60;99.90;;;;;;5048688;28;20310;-81
2022/07/22 13:34:50;;;;;;;;;;;23.90;99.90;;;;;;5036707;28;19923;-81
2022/07/22 13:37:16;;;;;;;;;;;24.40;99.90;;;;;;5034298;28;19904;-81
2022/07/22 13:39:45;;;;;;;;;;;25.10;99.90;;;;;;5034585;28;19920;-81
2022/07/22 13:42:11;;;;;;;;;;;24.90;99.90;;;;;;5034178;28;19908;-81
2022/07/22 13:44:37;;;;;;;;;;;24.60;99.90;;;;;;5051221;28;19913;-81
2022/07/22 13:47:02;;;;;;;;;;;24.60;99.90;;;;;;5034434;28;20741;-81
2022/07/22 13:49:28;;;;;;;;;;;25.40;99.90;;;;;;5050146;28;19908;-81
2022/07/22 13:51:54;;;;;;;;;;;25.90;98.40;;;;;;5044121;28;20267;-81
2022/07/22 13:54:19;;;;;;;;;;;26.00;99.60;;;;;;5052571;28;19963;-81
2022/07/22 13:56:48;;;;;;;;;;;27.10;96.40;;;;;;5051166;28;20007;-81
2022/07/22 13:59:14;;;;;;;;;;;28.30;95.10;;;;;;5049012;28;20387;-81
2022/07/22 14:01:39;;;;;;;;;;;29.30;92.00;;;;;;5031126;28;19908;-81
2022/07/22 14:04:06;;;;;;;;;;;28.90;91.80;;;;;;5052011;28;19904;-81
2022/07/22 14:06:32;;;;;;;;;;;28.30;91.50;;;;;;5036233;28;19965;-81
2022/07/22 14:08:57;;;;;;;;;;;27.50;93.20;;;;;;5037089;28;19986;-81
2022/07/22 14:11:23;;;;;;;;;;;26.00;94.10;;;;;;5035000;28;20360;-81